KPSF/PSF METAR and TAF weather

Enter ICAO airport designator
Station Type Date Time Source
KPSF METAR 2020/07/15 01:54 UTC NOAA

KPSF 150154Z AUTO 00000KT 10SM CLR 19/17 A3009 RMK AO2 SLP163 T01890167


Station Type Date Time Source
KPSF Decoded METAR 2020/07/15 01:54 UTC NOAA

PITTSFIELD MUNICIPAL AIRPORT , MA, United States (KPSF) 42-26N 073-17W 355M
Jul 14, 2020 - 09:54 PM EDT / 2020.07.15 0154 UTC
Wind: Calm:0
Visibility: 10 mile(s):0
Sky conditions: clear
Temperature: 66.0 F (18.9 C)
Dew Point: 62.1 F (16.7 C)
Relative Humidity: 87%
Pressure (altimeter): 30.09 in. Hg (1018 hPa)
ob: KPSF 150154Z AUTO 00000KT 10SM CLR 19/17 A3009 RMK AO2 SLP163 T01890167
cycle: 2

Station Type Date Time Source
KPSF TAF 2020/07/14 18:21 UTC NOAA

TAF KPSF 141720Z 1418/1518 32006KT P6SM VCTS SCT060CB
FM142000 32006KT P6SM VCSH BKN060
TEMPO 1420/1421 6SM SHRA BKN060
FM142100 33005KT P6SM SCT050

Example: see airport list